sensor_id;sensor_type;location;lat;lon;timestamp;temperature;humidity
2893;DHT22;1456;51.840;12.184;2022-12-18T00:01:30;-3.10;99.90
2893;DHT22;1456;51.840;12.184;2022-12-18T00:03:58;-3.10;99.90
2893;DHT22;1456;51.840;12.184;2022-12-18T00:06:26;-3.10;99.90
2893;DHT22;1456;51.840;12.184;2022-12-18T00:08:52;-3.10;99.90
2893;DHT22;1456;51.840;12.184;2022-12-18T00:11:21;-3.00;99.90
2893;DHT22;1456;51.840;12.184;2022-12-18T00:13:48;-3.10;99.90
2893;DHT22;1456;51.840;12.184;2022-12-18T00:16:20;-3.00;99.90
2893;DHT22;1456;51.840;12.184;2022-12-18T00:18:51;-3.00;99.90
2893;DHT22;1456;51.840;12.184;2022-12-18T00:21:19;-3.00;99.90
2893;DHT22;1456;51.840;12.184;2022-12-18T00:23:48;-2.80;99.90
2893;DHT22;1456;51.840;12.184;2022-12-18T00:26:17;-3.00;99.90
2893;DHT22;1456;51.840;12.184;2022-12-18T00:28:44;-2.90;99.90
2893;DHT22;1456;51.840;12.184;2022-12-18T00:31:13;-2.90;99.90
2893;DHT22;1456;51.840;12.184;2022-12-18T00:33:40;-2.90;99.90
2893;DHT22;1456;51.840;12.184;2022-12-18T00:36:09;-2.90;99.90
2893;DHT22;1456;51.840;12.184;2022-12-18T00:38:36;-2.90;99.90
2893;DHT22;1456;51.840;12.184;2022-12-18T00:41:02;-2.90;99.90
2893;DHT22;1456;51.840;12.184;2022-12-18T00:43:27;-2.90;99.90
2893;DHT22;1456;51.840;12.184;2022-12-18T00:45:54;-2.90;99.90
2893;DHT22;1456;51.840;12.184;2022-12-18T00:48:20;-3.00;99.90
2893;DHT22;1456;51.840;12.184;2022-12-18T00:50:48;-3.00;99.90
2893;DHT22;1456;51.840;12.184;2022-12-18T00:53:14;-3.00;99.90
2893;DHT22;1456;51.840;12.184;2022-12-18T00:55:40;-3.00;99.90
2893;DHT22;1456;51.840;12.184;2022-12-18T00:58:07;-3.00;99.90
2893;DHT22;1456;51.840;12.184;2022-12-18T01:00:35;-3.00;99.90
2893;DHT22;1456;51.840;12.184;2022-12-18T01:03:02;-3.10;99.90
2893;DHT22;1456;51.840;12.184;2022-12-18T01:05:28;-3.20;99.90
2893;DHT22;1456;51.840;12.184;2022-12-18T01:07:55;-3.20;99.90
2893;DHT22;1456;51.840;12.184;2022-12-18T01:10:20;-3.20;99.90
2893;DHT22;1456;51.840;12.184;2022-12-18T01:12:47;-3.20;99.90
2893;DHT22;1456;51.840;12.184;2022-12-18T01:15:14;-3.20;99.90
2893;DHT22;1456;51.840;12.184;2022-12-18T01:17:41;-3.20;99.90
2893;DHT22;1456;51.840;12.184;2022-12-18T01:20:08;-3.30;99.90
2893;DHT22;1456;51.840;12.184;2022-12-18T01:22:35;-3.40;99.90
2893;DHT22;1456;51.840;12.184;2022-12-18T01:25:02;-3.40;99.90
2893;DHT22;1456;51.840;12.184;2022-12-18T01:27:28;-3.50;99.90
2893;DHT22;1456;51.840;12.184;2022-12-18T01:29:54;-3.50;99.90
2893;DHT22;1456;51.840;12.184;2022-12-18T01:32:19;-3.30;99.90
2893;DHT22;1456;51.840;12.184;2022-12-18T01:34:45;-3.50;99.90
2893;DHT22;1456;51.840;12.184;2022-12-18T01:37:11;-3.50;99.90
2893;DHT22;1456;51.840;12.184;2022-12-18T01:39:37;-3.50;99.90
2893;DHT22;1456;51.840;12.184;2022-12-18T01:42:03;-3.50;99.90
2893;DHT22;1456;51.840;12.184;2022-12-18T01:47:22;-3.30;99.90
2893;DHT22;1456;51.840;12.184;2022-12-18T01:49:48;-3.40;99.90
2893;DHT22;1456;51.840;12.184;2022-12-18T01:52:15;-3.40;99.90
2893;DHT22;1456;51.840;12.184;2022-12-18T01:54:42;-3.40;99.90
2893;DHT22;1456;51.840;12.184;2022-12-18T01:57:08;-3.50;99.90
2893;DHT22;1456;51.840;12.184;2022-12-18T01:59:33;-3.50;99.90
2893;DHT22;1456;51.840;12.184;2022-12-18T02:02:02;-3.50;99.90
2893;DHT22;1456;51.840;12.184;2022-12-18T02:04:28;-3.30;99.90
2893;DHT22;1456;51.840;12.184;2022-12-18T02:07:28;-3.40;99.90
2893;DHT22;1456;51.840;12.184;2022-12-18T02:10:19;-3.40;99.90
2893;DHT22;1456;51.840;12.184;2022-12-18T02:16:06;-3.40;99.90
2893;DHT22;1456;51.840;12.184;2022-12-18T02:18:40;-3.40;99.90
2893;DHT22;1456;51.840;12.184;2022-12-18T02:21:25;-3.40;99.90
2893;DHT22;1456;51.840;12.184;2022-12-18T02:26:44;-3.40;99.90
2893;DHT22;1456;51.840;12.184;2022-12-18T02:29:15;-3.40;99.90
2893;DHT22;1456;51.840;12.184;2022-12-18T02:31:54;-3.40;99.90
2893;DHT22;1456;51.840;12.184;2022-12-18T02:34:23;-3.50;99.90
2893;DHT22;1456;51.840;12.184;2022-12-18T02:36:53;-3.40;99.90
2893;DHT22;1456;51.840;12.184;2022-12-18T02:39:21;-3.50;99.90
2893;DHT22;1456;51.840;12.184;2022-12-18T02:41:48;-3.50;99.90
2893;DHT22;1456;51.840;12.184;2022-12-18T02:44:14;-3.50;99.90
2893;DHT22;1456;51.840;12.184;2022-12-18T02:46:42;-3.40;99.90
2893;DHT22;1456;51.840;12.184;2022-12-18T03:01:06;-3.60;99.90
2893;DHT22;1456;51.840;12.184;2022-12-18T03:03:47;-3.60;99.90
2893;DHT22;1456;51.840;12.184;2022-12-18T03:06:17;-3.70;99.90
2893;DHT22;1456;51.840;12.184;2022-12-18T03:08:48;-3.80;99.90
2893;DHT22;1456;51.840;12.184;2022-12-18T03:11:16;-3.90;99.90
2893;DHT22;1456;51.840;12.184;2022-12-18T03:14:03;-3.90;99.90
2893;DHT22;1456;51.840;12.184;2022-12-18T03:16:34;-3.90;99.90
2893;DHT22;1456;51.840;12.184;2022-12-18T03:19:13;-3.80;99.90
2893;DHT22;1456;51.840;12.184;2022-12-18T03:21:46;-3.80;99.90
2893;DHT22;1456;51.840;12.184;2022-12-18T03:24:14;-3.90;99.90
2893;DHT22;1456;51.840;12.184;2022-12-18T03:26:44;-3.90;99.90
2893;DHT22;1456;51.840;12.184;2022-12-18T03:29:22;-3.80;99.90
2893;DHT22;1456;51.840;12.184;2022-12-18T03:31:54;-3.80;99.90
2893;DHT22;1456;51.840;12.184;2022-12-18T03:34:29;-3.70;99.90
2893;DHT22;1456;51.840;12.184;2022-12-18T03:36:56;-3.70;99.90
2893;DHT22;1456;51.840;12.184;2022-12-18T03:39:23;-3.70;99.90
2893;DHT22;1456;51.840;12.184;2022-12-18T03:44:32;-3.80;99.90
2893;DHT22;1456;51.840;12.184;2022-12-18T03:47:26;-3.70;99.90
2893;DHT22;1456;51.840;12.184;2022-12-18T03:53:06;-3.90;99.90
2893;DHT22;1456;51.840;12.184;2022-12-18T03:55:35;-3.90;99.90
2893;DHT22;1456;51.840;12.184;2022-12-18T03:58:04;-4.00;99.90
2893;DHT22;1456;51.840;12.184;2022-12-18T04:00:31;-3.90;99.90
2893;DHT22;1456;51.840;12.184;2022-12-18T04:02:59;-4.00;99.90
2893;DHT22;1456;51.840;12.184;2022-12-18T04:05:27;-4.10;99.90
2893;DHT22;1456;51.840;12.184;2022-12-18T04:07:54;-4.00;99.90
2893;DHT22;1456;51.840;12.184;2022-12-18T04:10:20;-4.20;99.90
2893;DHT22;1456;51.840;12.184;2022-12-18T04:12:46;-4.20;99.90
2893;DHT22;1456;51.840;12.184;2022-12-18T04:15:13;-4.20;99.90
2893;DHT22;1456;51.840;12.184;2022-12-18T04:17:47;-4.20;99.90
2893;DHT22;1456;51.840;12.184;2022-12-18T04:20:14;-4.20;99.90
2893;DHT22;1456;51.840;12.184;2022-12-18T04:22:39;-4.20;99.90
2893;DHT22;1456;51.840;12.184;2022-12-18T04:25:05;-4.20;99.90
2893;DHT22;1456;51.840;12.184;2022-12-18T04:27:31;-4.30;99.90
2893;DHT22;1456;51.840;12.184;2022-12-18T04:29:56;-4.10;99.90
2893;DHT22;1456;51.840;12.184;2022-12-18T04:32:22;-4.30;99.90
2893;DHT22;1456;51.840;12.184;2022-12-18T04:34:48;-4.30;99.90
2893;DHT22;1456;51.840;12.184;2022-12-18T04:37:13;-4.40;99.90
2893;DHT22;1456;51.840;12.184;2022-12-18T04:39:39;-4.30;99.90
2893;DHT22;1456;51.840;12.184;2022-12-18T04:42:05;-4.40;99.90
2893;DHT22;1456;51.840;12.184;2022-12-18T04:44:31;-4.40;99.90
2893;DHT22;1456;51.840;12.184;2022-12-18T04:46:56;-4.50;99.90
2893;DHT22;1456;51.840;12.184;2022-12-18T04:49:22;-4.60;99.90
2893;DHT22;1456;51.840;12.184;2022-12-18T04:51:48;-4.50;99.90
2893;DHT22;1456;51.840;12.184;2022-12-18T04:54:13;-4.60;99.90
2893;DHT22;1456;51.840;12.184;2022-12-18T04:56:39;-4.50;99.90
2893;DHT22;1456;51.840;12.184;2022-12-18T04:59:06;-4.80;99.90
2893;DHT22;1456;51.840;12.184;2022-12-18T05:01:34;-5.00;99.90
2893;DHT22;1456;51.840;12.184;2022-12-18T05:04:01;-5.20;99.90
2893;DHT22;1456;51.840;12.184;2022-12-18T05:06:26;-5.40;99.90
2893;DHT22;1456;51.840;12.184;2022-12-18T05:08:52;-5.70;99.90
2893;DHT22;1456;51.840;12.184;2022-12-18T05:11:18;-5.90;99.90
2893;DHT22;1456;51.840;12.184;2022-12-18T05:13:45;-6.10;99.90
2893;DHT22;1456;51.840;12.184;2022-12-18T05:16:11;-6.20;99.90
2893;DHT22;1456;51.840;12.184;2022-12-18T05:18:37;-6.30;99.90
2893;DHT22;1456;51.840;12.184;2022-12-18T05:21:03;-6.40;99.90
2893;DHT22;1456;51.840;12.184;2022-12-18T05:23:29;-6.50;99.90
2893;DHT22;1456;51.840;12.184;2022-12-18T05:25:57;-6.60;99.90
2893;DHT22;1456;51.840;12.184;2022-12-18T05:28:24;-6.70;99.90
2893;DHT22;1456;51.840;12.184;2022-12-18T05:30:52;-6.70;99.90
2893;DHT22;1456;51.840;12.184;2022-12-18T05:33:18;-6.80;99.90
2893;DHT22;1456;51.840;12.184;2022-12-18T05:35:49;-6.90;99.90
2893;DHT22;1456;51.840;12.184;2022-12-18T05:38:15;-6.90;99.90
2893;DHT22;1456;51.840;12.184;2022-12-18T05:40:44;-7.00;99.90
2893;DHT22;1456;51.840;12.184;2022-12-18T05:43:10;-7.10;99.90
2893;DHT22;1456;51.840;12.184;2022-12-18T05:45:39;-7.10;99.90
2893;DHT22;1456;51.840;12.184;2022-12-18T05:48:05;-7.20;99.90
2893;DHT22;1456;51.840;12.184;2022-12-18T05:50:37;-7.20;99.90
2893;DHT22;1456;51.840;12.184;2022-12-18T05:53:03;-7.20;99.90
2893;DHT22;1456;51.840;12.184;2022-12-18T05:55:36;-7.30;99.90
2893;DHT22;1456;51.840;12.184;2022-12-18T05:58:03;-7.30;99.90
2893;DHT22;1456;51.840;12.184;2022-12-18T06:00:30;-7.30;99.90
2893;DHT22;1456;51.840;12.184;2022-12-18T06:02:55;-7.40;99.90
2893;DHT22;1456;51.840;12.184;2022-12-18T06:05:22;-7.40;99.90
2893;DHT22;1456;51.840;12.184;2022-12-18T06:07:47;-7.50;99.90
2893;DHT22;1456;51.840;12.184;2022-12-18T06:10:13;-7.50;99.90
2893;DHT22;1456;51.840;12.184;2022-12-18T06:12:39;-7.50;99.90
2893;DHT22;1456;51.840;12.184;2022-12-18T06:15:05;-7.60;99.90
2893;DHT22;1456;51.840;12.184;2022-12-18T06:17:32;-7.60;99.90
2893;DHT22;1456;51.840;12.184;2022-12-18T06:19:58;-7.60;99.90
2893;DHT22;1456;51.840;12.184;2022-12-18T06:22:24;-7.70;99.90
2893;DHT22;1456;51.840;12.184;2022-12-18T06:24:50;-7.70;99.90
2893;DHT22;1456;51.840;12.184;2022-12-18T06:27:16;-7.70;99.90
2893;DHT22;1456;51.840;12.184;2022-12-18T06:29:43;-7.80;99.90
2893;DHT22;1456;51.840;12.184;2022-12-18T06:32:08;-7.80;99.90
2893;DHT22;1456;51.840;12.184;2022-12-18T06:34:37;-7.80;99.90
2893;DHT22;1456;51.840;12.184;2022-12-18T06:37:03;-7.90;99.90
2893;DHT22;1456;51.840;12.184;2022-12-18T06:39:29;-7.90;99.90
2893;DHT22;1456;51.840;12.184;2022-12-18T06:41:55;-7.90;99.90
2893;DHT22;1456;51.840;12.184;2022-12-18T06:44:20;-8.10;99.90
2893;DHT22;1456;51.840;12.184;2022-12-18T06:46:47;-8.00;99.90
2893;DHT22;1456;51.840;12.184;2022-12-18T06:49:13;-8.00;99.90
2893;DHT22;1456;51.840;12.184;2022-12-18T06:51:39;-8.00;99.90
2893;DHT22;1456;51.840;12.184;2022-12-18T06:54:05;-8.00;99.90
2893;DHT22;1456;51.840;12.184;2022-12-18T06:56:30;-8.10;99.90
2893;DHT22;1456;51.840;12.184;2022-12-18T06:58:56;-8.10;99.90
2893;DHT22;1456;51.840;12.184;2022-12-18T07:01:22;-8.10;99.90
2893;DHT22;1456;51.840;12.184;2022-12-18T07:03:52;-8.20;99.90
2893;DHT22;1456;51.840;12.184;2022-12-18T07:06:20;-8.20;99.90
2893;DHT22;1456;51.840;12.184;2022-12-18T07:08:47;-8.20;99.90
2893;DHT22;1456;51.840;12.184;2022-12-18T07:11:13;-8.30;99.90
2893;DHT22;1456;51.840;12.184;2022-12-18T07:13:38;-8.30;99.90
2893;DHT22;1456;51.840;12.184;2022-12-18T07:16:18;-8.30;99.90
2893;DHT22;1456;51.840;12.184;2022-12-18T07:18:45;-8.30;99.90
2893;DHT22;1456;51.840;12.184;2022-12-18T07:21:13;-8.30;99.90
2893;DHT22;1456;51.840;12.184;2022-12-18T07:23:39;-8.30;99.90
2893;DHT22;1456;51.840;12.184;2022-12-18T07:26:11;-8.30;99.90
2893;DHT22;1456;51.840;12.184;2022-12-18T07:28:38;-8.30;99.90
2893;DHT22;1456;51.840;12.184;2022-12-18T07:31:06;-8.30;99.90
2893;DHT22;1456;51.840;12.184;2022-12-18T07:33:33;-8.30;99.90
2893;DHT22;1456;51.840;12.184;2022-12-18T07:36:03;-8.20;99.90
2893;DHT22;1456;51.840;12.184;2022-12-18T07:38:32;-8.20;99.90
2893;DHT22;1456;51.840;12.184;2022-12-18T07:41:05;-8.10;99.90
2893;DHT22;1456;51.840;12.184;2022-12-18T07:43:32;-8.10;99.90
2893;DHT22;1456;51.840;12.184;2022-12-18T07:45:58;-8.10;99.90
2893;DHT22;1456;51.840;12.184;2022-12-18T07:48:23;-8.00;99.90
2893;DHT22;1456;51.840;12.184;2022-12-18T07:50:49;-8.00;99.90
2893;DHT22;1456;51.840;12.184;2022-12-18T07:53:15;-8.00;99.90
2893;DHT22;1456;51.840;12.184;2022-12-18T07:55:41;-7.90;99.90
2893;DHT22;1456;51.840;12.184;2022-12-18T07:58:07;-7.90;99.90
2893;DHT22;1456;51.840;12.184;2022-12-18T08:00:34;-7.80;99.90
2893;DHT22;1456;51.840;12.184;2022-12-18T08:03:00;-7.70;99.90
2893;DHT22;1456;51.840;12.184;2022-12-18T08:05:26;-7.70;99.90
2893;DHT22;1456;51.840;12.184;2022-12-18T08:07:53;-7.60;99.90
2893;DHT22;1456;51.840;12.184;2022-12-18T08:10:19;-7.50;99.90
2893;DHT22;1456;51.840;12.184;2022-12-18T08:12:45;-7.40;99.90
2893;DHT22;1456;51.840;12.184;2022-12-18T08:15:11;-7.30;99.90
2893;DHT22;1456;51.840;12.184;2022-12-18T08:17:36;-7.20;99.90
2893;DHT22;1456;51.840;12.184;2022-12-18T08:20:02;-7.10;99.90
2893;DHT22;1456;51.840;12.184;2022-12-18T08:22:28;-7.00;99.90
2893;DHT22;1456;51.840;12.184;2022-12-18T08:24:54;-6.90;99.90
2893;DHT22;1456;51.840;12.184;2022-12-18T08:27:20;-6.80;99.90
2893;DHT22;1456;51.840;12.184;2022-12-18T08:29:45;-6.70;99.90
2893;DHT22;1456;51.840;12.184;2022-12-18T08:32:11;-6.70;99.90
2893;DHT22;1456;51.840;12.184;2022-12-18T08:34:36;-6.60;99.90
2893;DHT22;1456;51.840;12.184;2022-12-18T08:37:02;-6.60;99.90
2893;DHT22;1456;51.840;12.184;2022-12-18T08:39:28;-6.40;99.90
2893;DHT22;1456;51.840;12.184;2022-12-18T08:41:53;-6.40;99.90
2893;DHT22;1456;51.840;12.184;2022-12-18T08:44:38;-6.30;99.90
2893;DHT22;1456;51.840;12.184;2022-12-18T08:47:07;-6.20;99.90
2893;DHT22;1456;51.840;12.184;2022-12-18T08:49:33;-6.10;99.90
2893;DHT22;1456;51.840;12.184;2022-12-18T08:51:59;-6.10;99.90
2893;DHT22;1456;51.840;12.184;2022-12-18T08:54:25;-6.00;99.90
2893;DHT22;1456;51.840;12.184;2022-12-18T08:56:51;-6.00;99.90
2893;DHT22;1456;51.840;12.184;2022-12-18T08:59:18;-6.00;99.90
2893;DHT22;1456;51.840;12.184;2022-12-18T09:01:44;-6.00;99.90
2893;DHT22;1456;51.840;12.184;2022-12-18T09:04:10;-5.90;99.90
2893;DHT22;1456;51.840;12.184;2022-12-18T09:06:36;-5.80;99.90
2893;DHT22;1456;51.840;12.184;2022-12-18T09:09:03;-5.80;99.90
2893;DHT22;1456;51.840;12.184;2022-12-18T09:11:30;-5.70;99.90
2893;DHT22;1456;51.840;12.184;2022-12-18T09:13:56;-5.70;99.90
2893;DHT22;1456;51.840;12.184;2022-12-18T09:16:23;-5.50;99.90
2893;DHT22;1456;51.840;12.184;2022-12-18T09:18:49;-5.60;99.90
2893;DHT22;1456;51.840;12.184;2022-12-18T09:21:18;-5.60;99.90
2893;DHT22;1456;51.840;12.184;2022-12-18T09:23:44;-5.50;99.90
2893;DHT22;1456;51.840;12.184;2022-12-18T09:26:14;-5.30;99.90
2893;DHT22;1456;51.840;12.184;2022-12-18T09:28:39;-5.50;99.90
2893;DHT22;1456;51.840;12.184;2022-12-18T09:31:07;-5.50;99.90
2893;DHT22;1456;51.840;12.184;2022-12-18T09:33:34;-5.50;99.90
2893;DHT22;1456;51.840;12.184;2022-12-18T09:36:03;-5.40;99.90
2893;DHT22;1456;51.840;12.184;2022-12-18T09:38:29;-5.30;99.90
2893;DHT22;1456;51.840;12.184;2022-12-18T09:40:59;-5.30;99.90
2893;DHT22;1456;51.840;12.184;2022-12-18T09:43:41;-5.20;99.90
2893;DHT22;1456;51.840;12.184;2022-12-18T09:46:11;-5.10;99.90
2893;DHT22;1456;51.840;12.184;2022-12-18T09:48:44;-4.90;99.90
2893;DHT22;1456;51.840;12.184;2022-12-18T09:51:21;-4.80;99.90
2893;DHT22;1456;51.840;12.184;2022-12-18T09:53:55;-4.80;99.90
2893;DHT22;1456;51.840;12.184;2022-12-18T09:56:23;-4.80;99.90
2893;DHT22;1456;51.840;12.184;2022-12-18T09:59:01;-4.80;99.90
2893;DHT22;1456;51.840;12.184;2022-12-18T10:01:31;-4.70;99.90
2893;DHT22;1456;51.840;12.184;2022-12-18T10:03:57;-4.60;99.90
2893;DHT22;1456;51.840;12.184;2022-12-18T10:06:33;-4.70;99.90
2893;DHT22;1456;51.840;12.184;2022-12-18T10:09:13;-4.70;99.90
2893;DHT22;1456;51.840;12.184;2022-12-18T10:14:53;-4.60;99.90
2893;DHT22;1456;51.840;12.184;2022-12-18T10:23:16;-4.40;99.90
2893;DHT22;1456;51.840;12.184;2022-12-18T10:26:00;-4.30;99.90
2893;DHT22;1456;51.840;12.184;2022-12-18T10:28:30;-4.20;99.90
2893;DHT22;1456;51.840;12.184;2022-12-18T10:30:56;-4.00;99.90
2893;DHT22;1456;51.840;12.184;2022-12-18T10:33:24;-4.00;99.90
2893;DHT22;1456;51.840;12.184;2022-12-18T10:35:53;-3.90;99.90
2893;DHT22;1456;51.840;12.184;2022-12-18T10:38:21;-3.90;99.90
2893;DHT22;1456;51.840;12.184;2022-12-18T10:41:00;-3.90;99.90
2893;DHT22;1456;51.840;12.184;2022-12-18T10:43:37;-3.80;99.90
2893;DHT22;1456;51.840;12.184;2022-12-18T10:48:55;-3.70;99.90
2893;DHT22;1456;51.840;12.184;2022-12-18T10:51:30;-3.60;99.90
2893;DHT22;1456;51.840;12.184;2022-12-18T10:54:14;-3.40;99.90
2893;DHT22;1456;51.840;12.184;2022-12-18T10:56:41;-3.20;99.90
2893;DHT22;1456;51.840;12.184;2022-12-18T10:59:09;-2.80;99.90
2893;DHT22;1456;51.840;12.184;2022-12-18T11:01:51;-2.70;99.90
2893;DHT22;1456;51.840;12.184;2022-12-18T11:04:20;-2.60;99.90
2893;DHT22;1456;51.840;12.184;2022-12-18T11:09:26;-2.30;99.90
2893;DHT22;1456;51.840;12.184;2022-12-18T11:11:55;-2.20;99.90
2893;DHT22;1456;51.840;12.184;2022-12-18T11:14:24;-2.10;99.90
2893;DHT22;1456;51.840;12.184;2022-12-18T11:16:51;-1.90;99.90
2893;DHT22;1456;51.840;12.184;2022-12-18T11:19:37;-1.60;99.90
2893;DHT22;1456;51.840;12.184;2022-12-18T11:22:29;-1.50;99.90
2893;DHT22;1456;51.840;12.184;2022-12-18T11:27:26;-0.90;99.90
2893;DHT22;1456;51.840;12.184;2022-12-18T11:29:52;-0.70;99.90
2893;DHT22;1456;51.840;12.184;2022-12-18T11:32:29;-0.40;99.90
2893;DHT22;1456;51.840;12.184;2022-12-18T11:35:10;-0.20;99.90
2893;DHT22;1456;51.840;12.184;2022-12-18T11:37:40;0.10;99.90
2893;DHT22;1456;51.840;12.184;2022-12-18T11:40:15;0.50;99.90
2893;DHT22;1456;51.840;12.184;2022-12-18T11:42:51;1.00;99.70
2893;DHT22;1456;51.840;12.184;2022-12-18T11:50:48;1.40;96.30
2893;DHT22;1456;51.840;12.184;2022-12-18T11:53:15;1.30;96.20
2893;DHT22;1456;51.840;12.184;2022-12-18T12:01:55;1.40;96.40
2893;DHT22;1456;51.840;12.184;2022-12-18T12:18:01;2.30;95.50
2893;DHT22;1456;51.840;12.184;2022-12-18T12:20:48;2.40;94.40
2893;DHT22;1456;51.840;12.184;2022-12-18T12:24:04;2.30;94.80
2893;DHT22;1456;51.840;12.184;2022-12-18T12:26:30;2.10;94.10
2893;DHT22;1456;51.840;12.184;2022-12-18T12:34:37;0.90;95.10
2893;DHT22;1456;51.840;12.184;2022-12-18T12:37:36;0.60;95.60
2893;DHT22;1456;51.840;12.184;2022-12-18T12:40:05;0.20;96.50
2893;DHT22;1456;51.840;12.184;2022-12-18T12:42:35;0.10;97.50
2893;DHT22;1456;51.840;12.184;2022-12-18T12:45:45;0.00;97.30
2893;DHT22;1456;51.840;12.184;2022-12-18T12:51:08;0.30;97.90
2893;DHT22;1456;51.840;12.184;2022-12-18T12:53:37;0.50;97.50
2893;DHT22;1456;51.840;12.184;2022-12-18T12:56:05;0.70;97.40
2893;DHT22;1456;51.840;12.184;2022-12-18T13:01:13;1.20;96.80
2893;DHT22;1456;51.840;12.184;2022-12-18T13:06:29;1.10;95.90
2893;DHT22;1456;51.840;12.184;2022-12-18T13:09:00;0.70;96.00
2893;DHT22;1456;51.840;12.184;2022-12-18T13:11:46;0.60;97.10
2893;DHT22;1456;51.840;12.184;2022-12-18T13:14:36;1.00;97.00
2893;DHT22;1456;51.840;12.184;2022-12-18T13:20:10;2.60;95.70
2893;DHT22;1456;51.840;12.184;2022-12-18T13:22:48;3.00;94.10
2893;DHT22;1456;51.840;12.184;2022-12-18T13:25:50;3.20;93.80
2893;DHT22;1456;51.840;12.184;2022-12-18T13:28:20;3.40;93.70
2893;DHT22;1456;51.840;12.184;2022-12-18T13:30:47;3.60;93.10
2893;DHT22;1456;51.840;12.184;2022-12-18T13:38:36;3.00;92.10
2893;DHT22;1456;51.840;12.184;2022-12-18T13:43:54;2.00;93.30
2893;DHT22;1456;51.840;12.184;2022-12-18T13:46:45;1.50;93.40
2893;DHT22;1456;51.840;12.184;2022-12-18T13:51:48;0.30;95.30
2893;DHT22;1456;51.840;12.184;2022-12-18T13:54:33;-0.20;96.10
2893;DHT22;1456;51.840;12.184;2022-12-18T13:57:02;-0.70;97.10
2893;DHT22;1456;51.840;12.184;2022-12-18T13:59:39;-1.10;98.30
2893;DHT22;1456;51.840;12.184;2022-12-18T14:02:26;-1.40;99.40
2893;DHT22;1456;51.840;12.184;2022-12-18T14:04:53;-1.80;99.90
2893;DHT22;1456;51.840;12.184;2022-12-18T14:07:22;-2.10;99.90
2893;DHT22;1456;51.840;12.184;2022-12-18T14:09:58;-2.40;99.90
2893;DHT22;1456;51.840;12.184;2022-12-18T14:12:28;-2.70;99.90
2893;DHT22;1456;51.840;12.184;2022-12-18T14:15:34;-3.00;99.90
2893;DHT22;1456;51.840;12.184;2022-12-18T14:18:21;-3.00;99.90
2893;DHT22;1456;51.840;12.184;2022-12-18T14:20:49;-3.40;99.90
2893;DHT22;1456;51.840;12.184;2022-12-18T14:25:55;-3.70;99.90
2893;DHT22;1456;51.840;12.184;2022-12-18T14:28:21;-3.60;99.90
2893;DHT22;1456;51.840;12.184;2022-12-18T14:30:52;-3.80;99.90
2893;DHT22;1456;51.840;12.184;2022-12-18T14:33:21;-3.90;99.90
2893;DHT22;1456;51.840;12.184;2022-12-18T14:36:05;-4.00;99.90
2893;DHT22;1456;51.840;12.184;2022-12-18T14:38:39;-4.10;99.90
2893;DHT22;1456;51.840;12.184;2022-12-18T14:43:34;-4.40;99.90
2893;DHT22;1456;51.840;12.184;2022-12-18T14:46:03;-4.50;99.90
2893;DHT22;1456;51.840;12.184;2022-12-18T14:48:41;-4.60;99.90
2893;DHT22;1456;51.840;12.184;2022-12-18T14:53:41;-4.80;99.90
2893;DHT22;1456;51.840;12.184;2022-12-18T14:56:19;-4.80;99.90
2893;DHT22;1456;51.840;12.184;2022-12-18T14:58:59;-4.90;99.90
2893;DHT22;1456;51.840;12.184;2022-12-18T15:01:32;-4.90;99.90
2893;DHT22;1456;51.840;12.184;2022-12-18T15:04:01;-5.00;99.90
2893;DHT22;1456;51.840;12.184;2022-12-18T15:06:30;-5.10;99.90
2893;DHT22;1456;51.840;12.184;2022-12-18T15:09:01;-5.10;99.90
2893;DHT22;1456;51.840;12.184;2022-12-18T15:11:47;-5.20;99.90
2893;DHT22;1456;51.840;12.184;2022-12-18T15:14:33;-5.20;99.90
2893;DHT22;1456;51.840;12.184;2022-12-18T15:17:17;-5.20;99.90
2893;DHT22;1456;51.840;12.184;2022-12-18T15:19:45;-5.20;99.90
2893;DHT22;1456;51.840;12.184;2022-12-18T15:22:30;-5.30;99.90
2893;DHT22;1456;51.840;12.184;2022-12-18T15:24:57;-5.30;99.90
2893;DHT22;1456;51.840;12.184;2022-12-18T15:27:29;-5.30;99.90
2893;DHT22;1456;51.840;12.184;2022-12-18T15:32:34;-5.30;99.90
2893;DHT22;1456;51.840;12.184;2022-12-18T15:35:14;-5.30;99.90
2893;DHT22;1456;51.840;12.184;2022-12-18T15:37:40;-5.40;99.90
2893;DHT22;1456;51.840;12.184;2022-12-18T15:40:07;-5.40;99.90
2893;DHT22;1456;51.840;12.184;2022-12-18T15:42:34;-5.40;99.90
2893;DHT22;1456;51.840;12.184;2022-12-18T15:45:18;-5.40;99.90
2893;DHT22;1456;51.840;12.184;2022-12-18T15:47:44;-5.30;99.90
2893;DHT22;1456;51.840;12.184;2022-12-18T15:50:09;-5.30;99.90
2893;DHT22;1456;51.840;12.184;2022-12-18T15:52:41;-5.30;99.90
2893;DHT22;1456;51.840;12.184;2022-12-18T15:55:15;-5.30;99.90
2893;DHT22;1456;51.840;12.184;2022-12-18T15:57:59;-5.30;99.90
2893;DHT22;1456;51.840;12.184;2022-12-18T16:00:25;-5.30;99.90
2893;DHT22;1456;51.840;12.184;2022-12-18T16:02:51;-5.30;99.90
2893;DHT22;1456;51.840;12.184;2022-12-18T16:05:18;-5.40;99.90
2893;DHT22;1456;51.840;12.184;2022-12-18T16:07:44;-5.40;99.90
2893;DHT22;1456;51.840;12.184;2022-12-18T16:10:10;-5.40;99.90
2893;DHT22;1456;51.840;12.184;2022-12-18T16:12:36;-5.40;99.90
2893;DHT22;1456;51.840;12.184;2022-12-18T16:15:04;-5.40;99.90
2893;DHT22;1456;51.840;12.184;2022-12-18T16:17:30;-5.40;99.90
2893;DHT22;1456;51.840;12.184;2022-12-18T16:19:56;-5.40;99.90
2893;DHT22;1456;51.840;12.184;2022-12-18T16:22:27;-5.40;99.90
2893;DHT22;1456;51.840;12.184;2022-12-18T16:24:54;-5.50;99.90
2893;DHT22;1456;51.840;12.184;2022-12-18T16:27:21;-5.50;99.90
2893;DHT22;1456;51.840;12.184;2022-12-18T16:29:48;-5.50;99.90
2893;DHT22;1456;51.840;12.184;2022-12-18T16:32:16;-5.50;99.90
2893;DHT22;1456;51.840;12.184;2022-12-18T16:34:42;-5.50;99.90
2893;DHT22;1456;51.840;12.184;2022-12-18T16:37:10;-5.40;99.90
2893;DHT22;1456;51.840;12.184;2022-12-18T16:39:37;-5.50;99.90
2893;DHT22;1456;51.840;12.184;2022-12-18T16:42:06;-5.40;99.90
2893;DHT22;1456;51.840;12.184;2022-12-18T16:44:35;-5.40;99.90
2893;DHT22;1456;51.840;12.184;2022-12-18T16:47:01;-5.30;99.90
2893;DHT22;1456;51.840;12.184;2022-12-18T16:49:27;-5.30;99.90
2893;DHT22;1456;51.840;12.184;2022-12-18T16:51:54;-5.30;99.90
2893;DHT22;1456;51.840;12.184;2022-12-18T16:54:20;-5.20;99.90
2893;DHT22;1456;51.840;12.184;2022-12-18T16:56:46;-5.40;99.90
2893;DHT22;1456;51.840;12.184;2022-12-18T16:59:14;-5.40;99.90
2893;DHT22;1456;51.840;12.184;2022-12-18T17:01:40;-5.40;99.90
2893;DHT22;1456;51.840;12.184;2022-12-18T17:04:07;-5.50;99.90
2893;DHT22;1456;51.840;12.184;2022-12-18T17:06:35;-5.50;99.90
2893;DHT22;1456;51.840;12.184;2022-12-18T17:09:06;-5.50;99.90
2893;DHT22;1456;51.840;12.184;2022-12-18T17:11:34;-5.50;99.90
2893;DHT22;1456;51.840;12.184;2022-12-18T17:14:06;-5.40;99.90
2893;DHT22;1456;51.840;12.184;2022-12-18T17:16:33;-5.40;99.90
2893;DHT22;1456;51.840;12.184;2022-12-18T17:18:58;-5.40;99.90
2893;DHT22;1456;51.840;12.184;2022-12-18T17:21:24;-5.40;99.90
2893;DHT22;1456;51.840;12.184;2022-12-18T17:23:50;-5.20;99.90
2893;DHT22;1456;51.840;12.184;2022-12-18T17:26:15;-5.30;99.90
2893;DHT22;1456;51.840;12.184;2022-12-18T17:28:41;-5.30;99.90
2893;DHT22;1456;51.840;12.184;2022-12-18T17:31:12;-5.30;99.90
2893;DHT22;1456;51.840;12.184;2022-12-18T17:33:38;-5.30;99.90
2893;DHT22;1456;51.840;12.184;2022-12-18T17:36:04;-5.30;99.90
2893;DHT22;1456;51.840;12.184;2022-12-18T17:38:30;-5.20;99.90
2893;DHT22;1456;51.840;12.184;2022-12-18T17:41:00;-5.20;99.90
2893;DHT22;1456;51.840;12.184;2022-12-18T17:43:26;-5.10;99.90
2893;DHT22;1456;51.840;12.184;2022-12-18T17:45:52;-5.00;99.90
2893;DHT22;1456;51.840;12.184;2022-12-18T17:48:18;-5.00;99.90
2893;DHT22;1456;51.840;12.184;2022-12-18T17:50:43;-4.90;99.90